Time;durP1;ratioP1;P1;durP2;ratioP2;P2;SDS_P1;SDS_P2;PMS_P1;PMS_P2;Temp;Humidity;BMP_temperature;BMP_pressure;BME280_temperature;BME280_humidity;BME280_pressure;Samples;Min_cycle;Max_cycle;Signal;HPM_P1;HPM_P2
2022/06/29 05:07:30;;;;;;;3.88;1.48;;;;;;;18.62;43.72;100196.66;5022000;28;20128;-44
2022/06/29 05:09:56;;;;;;;4.20;1.60;;;;;;;18.73;43.70;100193.38;5023330;28;20033;-44
2022/06/29 05:12:21;;;;;;;4.78;1.50;;;;;;;18.79;43.54;100190.41;5025650;28;20091;-44
2022/06/29 05:14:47;;;;;;;4.95;1.95;;;;;;;18.86;43.21;100192.56;5025512;28;20521;-45
2022/06/29 05:17:13;;;;;;;4.53;1.92;;;;;;;18.92;42.92;100193.97;5025481;28;20045;-45
2022/06/29 05:19:39;;;;;;;2.55;1.55;;;;;;;18.98;42.56;100196.25;5006588;28;20052;-44
2022/06/29 05:22:05;;;;;;;8.90;4.88;;;;;;;19.05;42.14;100197.56;5025542;28;20128;-44
2022/06/29 05:24:31;;;;;;;5.20;2.42;;;;;;;19.11;42.05;100202.44;5025734;28;20029;-44
2022/06/29 05:26:57;;;;;;;1.55;1.05;;;;;;;19.01;41.90;100175.81;5026579;28;20048;-44
2022/06/29 05:29:25;;;;;;;3.40;1.77;;;;;;;19.22;41.60;100204.41;5026680;28;20041;-43
2022/06/29 05:31:52;;;;;;;1.80;1.33;;;;;;;19.30;41.38;100216.22;5026059;28;20037;-44
2022/06/29 05:34:18;;;;;;;2.00;1.20;;;;;;;19.38;41.06;100200.75;5026486;28;20033;-44
2022/06/29 05:36:45;;;;;;;2.10;0.95;;;;;;;19.47;41.12;100196.72;5023973;28;20072;-46
2022/06/29 05:39:11;;;;;;;5.43;1.50;;;;;;;19.55;40.85;100196.25;5026170;28;20144;-44
2022/06/29 05:41:37;;;;;;;2.45;1.40;;;;;;;19.60;40.43;100205.56;5024732;28;20530;-44
2022/06/29 05:44:04;;;;;;;2.08;1.10;;;;;;;19.67;39.97;100203.38;5026197;28;20030;-45
2022/06/29 05:46:33;;;;;;;2.15;1.15;;;;;;;19.72;39.66;100199.50;5025206;28;20050;-46
2022/06/29 05:48:58;;;;;;;2.47;1.20;;;;;;;19.74;39.34;100196.75;5025868;28;21765;-46
2022/06/29 05:51:26;;;;;;;8.48;1.95;;;;;;;19.79;39.41;100192.03;5022895;28;20103;-45
2022/06/29 05:53:52;;;;;;;9.98;1.60;;;;;;;19.94;39.48;100195.50;5057121;28;20541;-44
2022/06/29 05:56:17;;;;;;;10.32;1.70;;;;;;;20.08;39.48;100191.00;5022677;28;20481;-45
2022/06/29 05:58:43;;;;;;;5.53;2.10;;;;;;;20.09;39.71;100179.50;5020984;28;20072;-47
2022/06/29 06:01:09;;;;;;;6.95;2.53;;;;;;;20.15;39.47;100170.34;5024468;28;20091;-44
2022/06/29 06:03:36;;;;;;;3.00;1.55;;;;;;;20.39;39.12;100196.94;5019323;28;20032;-43
2022/06/29 06:06:02;;;;;;;3.55;1.10;;;;;;;20.42;38.57;100184.34;5021911;28;20045;-44
2022/06/29 06:08:28;;;;;;;2.47;1.60;;;;;;;20.43;38.67;100186.06;5023052;28;20540;-45
2022/06/29 06:10:54;;;;;;;8.00;2.13;;;;;;;20.53;38.74;100192.41;5022802;28;20123;-46
2022/06/29 06:13:21;;;;;;;5.00;2.17;;;;;;;20.67;38.79;100180.94;5025100;28;20038;-45
2022/06/29 06:15:47;;;;;;;3.92;1.40;;;;;;;20.77;38.53;100175.84;4965929;28;20085;-47
2022/06/29 06:18:14;;;;;;;7.25;2.13;;;;;;;20.87;38.67;100176.91;5004784;28;20137;-47
2022/06/29 06:20:41;;;;;;;5.95;2.17;;;;;;;20.96;38.26;100176.28;4990523;28;20513;-43
2022/06/29 06:23:07;;;;;;;6.97;2.13;;;;;;;21.12;37.91;100176.91;5024419;28;20041;-46
2022/06/29 06:25:33;;;;;;;3.25;1.83;;;;;;;21.26;37.50;100173.31;5024470;28;20046;-45
2022/06/29 06:28:00;;;;;;;5.32;1.70;;;;;;;21.37;37.58;100166.31;5024275;28;21676;-44
2022/06/29 06:30:26;;;;;;;3.33;1.60;;;;;;;21.50;37.42;100161.00;5020923;28;20041;-44
2022/06/29 06:32:52;;;;;;;4.65;2.05;;;;;;;21.71;37.11;100159.44;5024966;28;20045;-43
2022/06/29 06:35:21;;;;;;;5.30;2.50;;;;;;;21.84;36.48;100141.69;5026098;28;20048;-44
2022/06/29 06:37:48;;;;;;;6.70;1.88;;;;;;;22.13;36.26;100157.28;5055363;28;20045;-43
2022/06/29 06:42:58;;;;;;;3.45;2.03;;;;;;;22.43;35.33;100151.47;5019159;28;20042;-45
2022/06/29 06:45:24;;;;;;;4.55;1.67;;;;;;;22.98;34.74;100150.72;5027003;28;20052;-43
2022/06/29 06:47:50;;;;;;;4.15;2.67;;;;;;;23.78;33.48;100152.25;5029585;28;20690;-44
2022/06/29 06:50:16;;;;;;;3.90;1.88;;;;;;;24.41;31.38;100138.13;5022036;28;20048;-45
2022/06/29 06:52:42;;;;;;;3.15;1.75;;;;;;;25.33;30.07;100155.00;5031135;28;20041;-43
2022/06/29 06:55:08;;;;;;;6.45;1.98;;;;;;;26.27;28.52;100151.84;5033389;28;20045;-44
2022/06/29 06:57:34;;;;;;;4.65;1.90;;;;;;;27.18;27.44;100147.69;5014576;28;20044;-46
2022/06/29 06:59:59;;;;;;;3.75;1.98;;;;;;;28.16;26.39;100156.66;5059352;28;20045;-49
2022/06/29 07:02:25;;;;;;;4.70;2.40;;;;;;;29.17;25.74;100154.38;5031585;28;20080;-44
2022/06/29 07:04:51;;;;;;;6.38;3.50;;;;;;;30.40;24.32;100150.03;5037915;28;20096;-44
2022/06/29 07:07:17;;;;;;;3.50;2.15;;;;;;;31.53;23.80;100140.84;5031925;28;20568;-45
2022/06/29 07:09:42;;;;;;;5.03;2.60;;;;;;;32.56;22.10;100146.69;5030344;28;20048;-45
2022/06/29 07:12:08;;;;;;;2.60;1.88;;;;;;;33.36;21.16;100146.88;5033198;28;20033;-45
2022/06/29 07:14:35;;;;;;;26.08;15.65;;;;;;;34.33;20.31;100142.78;5032279;28;20049;-45
2022/06/29 07:17:00;;;;;;;5.97;2.80;;;;;;;35.19;19.12;100144.22;5030759;28;20116;-46
2022/06/29 07:19:26;;;;;;;4.82;2.80;;;;;;;35.83;18.39;100142.00;5052242;28;20073;-47
2022/06/29 07:21:52;;;;;;;7.82;3.80;;;;;;;36.62;17.17;100154.81;5023732;28;20045;-48
2022/06/29 07:24:19;;;;;;;9.75;3.13;;;;;;;37.30;16.91;100156.97;5031184;28;20068;-45
2022/06/29 07:26:45;;;;;;;10.30;4.47;;;;;;;37.91;15.86;100139.34;5030069;28;20037;-44
2022/06/29 07:29:11;;;;;;;5.82;3.53;;;;;;;38.52;15.76;100153.16;5030137;28;20048;-50
2022/06/29 07:31:37;;;;;;;5.47;2.40;;;;;;;38.92;15.46;100146.28;5027679;28;20041;-47
2022/06/29 07:34:04;;;;;;;6.57;2.33;;;;;;;39.33;14.97;100144.78;5005142;28;20049;-47
2022/06/29 07:36:30;;;;;;;5.10;2.38;;;;;;;39.66;14.76;100134.31;5032259;28;20045;-49
2022/06/29 07:38:56;;;;;;;5.75;4.68;;;;;;;40.12;14.04;100154.59;5061738;28;20049;-49
2022/06/29 07:41:22;;;;;;;9.13;3.33;;;;;;;40.50;14.19;100126.94;5035622;28;20041;-49
2022/06/29 07:43:48;;;;;;;5.68;5.20;;;;;;;40.75;13.14;100146.66;5041615;28;20045;-49
2022/06/29 07:46:14;;;;;;;3.30;2.17;;;;;;;40.86;12.67;100145.81;5032767;28;20041;-51
2022/06/29 07:48:40;;;;;;;3.03;1.95;;;;;;;41.08;12.23;100140.59;5030482;28;20041;-51
2022/06/29 07:51:05;;;;;;;7.25;2.60;;;;;;;41.47;12.14;100146.31;5011708;28;20140;-46
2022/06/29 07:53:32;;;;;;;25.52;9.57;;;;;;;41.74;12.20;100145.47;5017893;28;20045;-47
2022/06/29 07:55:58;;;;;;;5.70;2.33;;;;;;;41.84;12.06;100134.72;5032673;28;20638;-51
2022/06/29 07:58:23;;;;;;;5.82;2.35;;;;;;;42.24;11.97;100140.09;5031180;28;20049;-47
2022/06/29 08:00:49;;;;;;;6.85;2.55;;;;;;;42.54;11.91;100144.41;5030857;28;20475;-49
2022/06/29 08:03:15;;;;;;;2.40;2.20;;;;;;;42.59;11.48;100139.03;5032006;28;20060;-51
2022/06/29 08:05:41;;;;;;;6.53;3.40;;;;;;;42.76;11.76;100128.91;5032063;28;20421;-48
2022/06/29 08:08:08;;;;;;;14.05;5.03;;;;;;;43.12;11.45;100126.69;5032191;28;20103;-49
2022/06/29 08:10:35;;;;;;;;;;;;;;;43.30;11.47;100124.41;5045776;28;20061;-45
2022/06/29 08:13:00;;;;;;;8.55;4.13;;;;;;;43.52;11.39;100123.59;5032320;28;19923;-46
2022/06/29 08:15:27;;;;;;;19.02;5.75;;;;;;;43.68;11.45;100117.19;5014286;28;20513;-45
2022/06/29 08:17:52;;;;;;;9.40;3.55;;;;;;;44.10;11.11;100117.31;5033497;28;20041;-47
2022/06/29 08:20:19;;;;;;;7.32;3.67;;;;;;;44.24;11.19;100104.81;5027222;28;20048;-48
2022/06/29 08:22:45;;;;;;;23.60;9.53;;;;;;;44.29;11.05;100094.75;5029372;28;20501;-51
2022/06/29 08:25:11;;;;;;;9.30;4.40;;;;;;;44.63;10.89;100105.38;5030684;28;20063;-51
2022/06/29 08:27:38;;;;;;;9.02;3.03;;;;;;;44.84;10.54;100103.59;5015405;28;20048;-50
2022/06/29 08:30:05;;;;;;;5.60;2.70;;;;;;;44.75;10.29;100097.81;5029921;28;20532;-51
2022/06/29 08:32:31;;;;;;;;;;;;;;;44.68;10.11;100098.03;5030170;28;20037;-49
2022/06/29 08:35:01;;;;;;;4.68;2.65;;;;;;;44.62;10.39;100098.25;5031043;28;19971;-45
2022/06/29 08:37:28;;;;;;;8.70;3.10;;;;;;;44.80;10.33;100105.22;5030727;28;20072;-47
2022/06/29 08:39:54;;;;;;;6.35;3.65;;;;;;;44.92;10.33;100103.06;5026634;28;20045;-49
2022/06/29 08:42:24;;;;;;;6.70;3.08;;;;;;;44.92;10.52;100103.06;5028864;28;20428;-47
2022/06/29 08:44:51;;;;;;;3.97;2.78;;;;;;;44.84;10.41;100098.09;5029769;28;20410;-48
2022/06/29 08:47:17;;;;;;;;;;;;;;;45.00;10.35;100091.59;5031871;28;20048;-51
2022/06/29 08:49:44;;;;;;;8.63;4.93;;;;;;;45.08;10.29;100091.09;5025714;28;20447;-48
2022/06/29 08:52:10;;;;;;;12.88;4.43;;;;;;;45.26;10.22;100085.13;5030640;28;20120;-48
2022/06/29 08:54:49;;;;;;;10.33;3.20;;;;;;;45.34;10.08;100086.50;5031031;28;20513;-46
2022/06/29 08:57:15;;;;;;;6.28;2.60;;;;;;;45.30;10.05;100086.22;5021242;28;20072;-52
2022/06/29 08:59:44;;;;;;;7.07;2.88;;;;;;;45.29;10.36;100075.50;5028612;28;20489;-49
2022/06/29 09:02:11;;;;;;;3.90;3.15;;;;;;;45.37;10.13;100073.06;5030231;28;20041;-46
2022/06/29 09:04:37;;;;;;;5.72;4.10;;;;;;;45.57;9.95;100074.22;5030431;28;20370;-50
2022/06/29 09:07:03;;;;;;;17.00;8.07;;;;;;;45.73;9.99;100079.47;5029314;28;20037;-48
2022/06/29 09:09:29;;;;;;;6.82;3.58;;;;;;;45.60;9.88;100076.41;5026988;28;20144;-50
2022/06/29 09:11:55;;;;;;;5.60;3.00;;;;;;;45.37;9.38;100064.00;5018812;28;20095;-52
2022/06/29 09:14:23;;;;;;;8.57;3.10;;;;;;;45.58;9.15;100070.38;5013331;28;20451;-52
2022/06/29 09:16:49;;;;;;;11.35;3.30;;;;;;;45.74;9.76;100075.63;5028774;28;20119;-49
2022/06/29 09:19:19;;;;;;;6.68;3.40;;;;;;;45.94;9.61;100072.91;5031108;28;20045;-48
2022/06/29 09:21:48;;;;;;;2.90;2.70;;;;;;;46.00;8.92;100078.38;5012930;28;20065;-48
2022/06/29 09:24:15;;;;;;;4.88;3.03;;;;;;;45.91;9.23;100069.84;4993508;28;20498;-52
2022/06/29 09:26:42;;;;;;;15.13;9.82;;;;;;;45.92;9.11;100072.34;5026147;28;20124;-49
2022/06/29 09:29:31;;;;;;;17.73;11.88;;;;;;;46.02;9.08;100068.75;5045951;28;20585;-47
2022/06/29 09:32:06;;;;;;;3.67;2.95;;;;;;;46.11;9.00;100063.53;5029216;28;20509;-48
2022/06/29 09:34:53;;;;;;;8.15;6.15;;;;;;;46.27;9.14;100060.47;5030755;28;20170;-47
2022/06/29 09:37:23;;;;;;;18.70;14.40;;;;;;;46.45;9.31;100056.31;5029418;28;20555;-52
2022/06/29 09:39:53;;;;;;;4.30;3.90;;;;;;;46.47;8.99;100059.63;5028290;28;20064;-48
2022/06/29 09:42:23;;;;;;;6.38;3.40;;;;;;;46.34;9.07;100052.78;5010932;28;20072;-45
2022/06/29 09:44:49;;;;;;;5.13;3.63;;;;;;;46.30;8.61;100056.38;5009206;28;20517;-50
2022/06/29 09:47:16;;;;;;;23.77;12.45;;;;;;;46.17;8.89;100057.75;5027579;28;20091;-47
2022/06/29 09:49:48;;;;;;;13.85;9.10;;;;;;;46.50;9.39;100053.56;5030025;28;20037;-48
2022/06/29 09:52:15;;;;;;;12.27;4.38;;;;;;;46.46;8.83;100048.91;5023839;28;20064;-50
2022/06/29 09:54:54;;;;;;;4.38;3.97;;;;;;;46.47;8.90;100053.31;5061851;28;20033;-46
2022/06/29 09:57:22;;;;;;;6.70;3.30;;;;;;;46.48;9.00;100043.94;5062272;28;20052;-51
2022/06/29 10:02:46;;;;;;;6.80;3.78;;;;;;;46.30;8.61;100051.69;5010524;28;20053;-47
2022/06/29 10:05:28;;;;;;;7.00;3.07;;;;;;;45.92;8.69;100036.59;5042318;28;20045;-46
2022/06/29 10:07:54;;;;;;;5.68;3.55;;;;;;;46.01;8.61;100052.53;5009082;28;20072;-47
2022/06/29 10:10:23;;;;;;;4.95;3.30;;;;;;;45.93;8.49;100045.66;5024479;28;20037;-46
2022/06/29 10:16:02;;;;;;;5.45;2.90;;;;;;;46.10;8.70;100059.13;5008947;28;20045;-48
2022/06/29 10:18:54;;;;;;;5.20;4.00;;;;;;;46.14;8.78;100057.47;5010538;28;20042;-48
2022/06/29 10:21:24;;;;;;;5.07;3.35;;;;;;;46.20;8.53;100045.38;5026849;28;20575;-46
2022/06/29 10:23:53;;;;;;;3.30;3.10;;;;;;;45.98;8.88;100029.16;5030008;28;20041;-47
2022/06/29 10:26:32;;;;;;;2.78;2.58;;;;;;;45.90;8.36;100030.56;5028869;28;20504;-48
2022/06/29 10:29:10;;;;;;;3.22;2.92;;;;;;;45.97;8.33;100024.75;5030314;28;20068;-50
2022/06/29 10:31:54;;;;;;;5.82;3.10;;;;;;;46.00;8.14;100035.22;5045037;28;20052;-48
2022/06/29 10:34:31;;;;;;;3.75;3.08;;;;;;;45.96;7.95;100034.09;5040122;28;20117;-49
2022/06/29 10:37:05;;;;;;;3.17;2.83;;;;;;;45.77;8.07;100033.81;5029933;28;20047;-49
2022/06/29 10:39:43;;;;;;;4.90;2.90;;;;;;;45.63;8.18;100029.16;5029828;28;20075;-47
2022/06/29 10:45:09;;;;;;;;;;;;;;;45.70;8.81;100021.44;5010411;28;20049;-47
2022/06/29 10:47:36;;;;;;;6.90;4.70;;;;;;;45.81;8.53;100021.19;5010120;28;19959;-46
2022/06/29 10:50:19;;;;;;;4.60;3.72;;;;;;;45.89;8.53;100019.84;5008849;28;20065;-46
2022/06/29 10:52:46;;;;;;;6.03;3.78;;;;;;;46.02;8.28;100018.44;5011425;28;20589;-48
2022/06/29 10:55:12;;;;;;;3.67;3.20;;;;;;;46.01;8.60;100006.59;5026928;28;20096;-50
2022/06/29 10:57:39;;;;;;;4.60;2.92;;;;;;;46.15;8.30;100021.44;5028085;28;20132;-47
2022/06/29 11:00:10;;;;;;;4.70;2.95;;;;;;;46.14;8.52;100005.22;5008573;28;20509;-49
2022/06/29 11:02:36;;;;;;;6.00;3.10;;;;;;;46.05;8.25;100001.38;5009054;28;20049;-49
2022/06/29 11:05:03;;;;;;;3.35;2.83;;;;;;;44.91;7.94;100008.91;5025929;28;20042;-50
2022/06/29 11:12:58;;;;;;;3.35;2.60;;;;;;;44.46;8.50;99995.84;5020121;28;20064;-48
2022/06/29 11:15:48;;;;;;;3.03;2.63;;;;;;;43.90;8.93;99997.41;5028510;28;20402;-49
2022/06/29 11:18:16;;;;;;;5.25;3.33;;;;;;;44.20;8.79;99992.09;5029022;28;20041;-52
2022/06/29 11:20:44;;;;;;;2.70;2.42;;;;;;;44.46;8.61;100004.06;5028441;28;20091;-46
2022/06/29 11:23:15;;;;;;;3.38;3.08;;;;;;;44.81;9.23;99997.09;5060844;28;20132;-50
2022/06/29 11:25:43;;;;;;;4.80;4.40;;;;;;;44.95;9.10;99993.56;5022339;28;20053;-53
2022/06/29 11:28:09;;;;;;;4.22;2.88;;;;;;;45.14;8.80;99985.69;5008169;28;20187;-51
2022/06/29 11:30:35;;;;;;;3.50;3.20;;;;;;;45.29;8.59;99982.94;5012524;28;20079;-48
2022/06/29 11:33:10;;;;;;;7.82;3.05;;;;;;;45.40;8.69;99992.03;5063802;28;20429;-53
2022/06/29 11:35:37;;;;;;;3.58;3.22;;;;;;;45.46;8.90;99985.47;5017726;28;20042;-52
2022/06/29 11:38:05;;;;;;;5.85;3.10;;;;;;;45.54;8.80;99977.47;5027645;28;20060;-51
2022/06/29 11:40:41;;;;;;;3.33;3.03;;;;;;;45.79;8.29;99978.59;5031310;28;20532;-47
2022/06/29 11:43:09;;;;;;;5.13;2.80;;;;;;;45.86;8.60;99962.63;5032605;28;20037;-52
2022/06/29 11:45:53;;;;;;;3.50;3.22;;;;;;;45.50;8.64;99970.06;5032494;28;20048;-49
2022/06/29 11:48:22;;;;;;;5.43;2.97;;;;;;;45.45;8.57;99957.16;5005122;28;20137;-47
2022/06/29 11:50:56;;;;;;;7.65;6.07;;;;;;;45.59;8.80;99959.38;5013038;28;20053;-46
2022/06/29 11:53:44;;;;;;;5.97;3.88;;;;;;;45.53;8.54;99947.56;5026852;28;20501;-49
2022/06/29 11:56:15;;;;;;;57.83;7.35;;;;;;;45.55;8.53;99942.59;5032399;28;20056;-49
2022/06/29 11:58:43;;;;;;;8.30;3.33;;;;;;;45.44;8.40;99939.03;5021207;28;20506;-49
2022/06/29 12:01:15;;;;;;;3.10;2.72;;;;;;;45.29;8.36;99939.00;5013104;28;20037;-52
2022/06/29 12:03:54;;;;;;;12.75;8.98;;;;;;;45.41;8.26;99938.72;5031741;28;20047;-49
2022/06/29 12:06:24;;;;;;;12.77;7.82;;;;;;;45.40;8.65;99929.66;5031076;28;20107;-48
2022/06/29 12:08:55;;;;;;;7.95;7.25;;;;;;;45.29;8.88;99919.78;5028186;28;20053;-47
2022/06/29 12:11:22;;;;;;;13.27;9.75;;;;;;;45.31;8.69;99914.03;5032125;28;20103;-52
2022/06/29 12:13:49;;;;;;;13.55;7.40;;;;;;;45.42;8.98;99912.94;5032340;28;20049;-48
2022/06/29 12:16:16;;;;;;;31.50;16.10;;;;;;;45.37;9.09;99913.75;5032533;28;20072;-51
2022/06/29 12:18:42;;;;;;;3.35;3.08;;;;;;;45.25;8.80;99904.94;5023251;28;20101;-49
2022/06/29 12:21:08;;;;;;;11.73;9.43;;;;;;;45.04;8.88;99906.88;5012470;28;20421;-52
2022/06/29 12:23:34;;;;;;;6.20;4.70;;;;;;;44.94;8.85;99904.09;5012347;28;20048;-52
2022/06/29 12:26:00;;;;;;;7.63;6.10;;;;;;;44.87;9.05;99898.03;5027668;28;20416;-51
2022/06/29 12:28:26;;;;;;;6.22;5.72;;;;;;;44.69;8.94;99888.41;5024893;28;20045;-45
2022/06/29 12:30:52;;;;;;;6.90;3.90;;;;;;;44.66;9.45;99897.16;5024177;28;20029;-46
2022/06/29 12:33:19;;;;;;;7.78;3.28;;;;;;;44.68;9.22;99896.91;5025758;28;20038;-48
2022/06/29 12:35:44;;;;;;;7.50;2.90;;;;;;;44.45;9.45;99889.13;5026693;28;20041;-51
2022/06/29 12:38:10;;;;;;;4.93;3.20;;;;;;;44.15;9.21;99879.66;5030034;28;20524;-50
2022/06/29 12:40:36;;;;;;;6.88;3.17;;;;;;;43.60;9.40;99880.19;5024547;28;20037;-48
2022/06/29 12:43:02;;;;;;;6.75;2.55;;;;;;;42.57;9.90;99873.97;5020841;28;20049;-49
2022/06/29 12:45:28;;;;;;;7.82;3.40;;;;;;;41.14;10.47;99866.72;5030674;28;20046;-46
2022/06/29 12:47:54;;;;;;;6.93;4.53;;;;;;;39.66;11.08;99862.03;5027482;28;20497;-49
2022/06/29 12:50:21;;;;;;;7.15;2.03;;;;;;;38.44;11.91;99857.19;5013730;28;20532;-46
2022/06/29 12:52:50;;;;;;;6.47;3.00;;;;;;;37.42;12.66;99855.16;5031955;28;20045;-49
2022/06/29 12:55:18;;;;;;;4.80;2.00;;;;;;;36.63;13.60;99861.97;5046322;28;20034;-46
2022/06/29 12:57:45;;;;;;;45.65;9.30;;;;;;;35.92;13.91;99855.72;5013938;28;20528;-47
2022/06/29 13:00:13;;;;;;;14.68;4.28;;;;;;;35.30;13.90;99848.91;5010744;28;20048;-46
2022/06/29 13:02:39;;;;;;;5.68;2.42;;;;;;;34.96;14.53;99849.09;5011828;28;20046;-47
2022/06/29 13:05:07;;;;;;;3.38;1.77;;;;;;;34.58;14.71;99846.06;5043690;28;20049;-48
2022/06/29 13:07:34;;;;;;;;;;;;;;;34.49;14.94;99853.53;5031101;28;20146;-46
2022/06/29 13:09:59;;;;;;;6.90;2.63;;;;;;;34.21;15.35;99842.81;5047894;28;19928;-43
2022/06/29 13:12:26;;;;;;;17.02;7.45;;;;;;;33.76;15.90;99844.19;5046877;28;20037;-47
2022/06/29 13:14:52;;;;;;;6.97;1.95;;;;;;;33.37;16.06;99833.13;5030497;28;20055;-48
2022/06/29 13:17:19;;;;;;;4.45;1.80;;;;;;;32.95;16.59;99832.13;5031126;28;20060;-47
2022/06/29 13:19:44;;;;;;;8.32;4.63;;;;;;;32.66;16.87;99822.28;5046124;28;20057;-45
2022/06/29 13:22:12;;;;;;;8.93;4.32;;;;;;;32.35;17.12;99822.53;5031144;28;20130;-46
2022/06/29 13:24:38;;;;;;;11.63;3.85;;;;;;;32.01;17.49;99829.53;5020620;28;20044;-48
2022/06/29 13:27:04;;;;;;;8.23;4.32;;;;;;;31.58;17.55;99825.81;5027815;28;20129;-47
2022/06/29 13:29:30;;;;;;;13.93;7.68;;;;;;;31.21;17.65;99814.03;5062905;28;20132;-46
2022/06/29 13:31:56;;;;;;;7.97;4.40;;;;;;;30.95;18.50;99814.41;5013189;28;20063;-48
2022/06/29 13:34:21;;;;;;;4.65;2.80;;;;;;;30.66;19.16;99811.63;5061313;28;20053;-45
2022/06/29 13:36:47;;;;;;;8.13;2.92;;;;;;;30.44;19.61;99815.91;5030385;28;20040;-50
2022/06/29 13:39:14;;;;;;;9.82;6.50;;;;;;;30.19;19.37;99811.69;5029764;28;20052;-49
2022/06/29 13:41:40;;;;;;;11.90;6.82;;;;;;;30.01;19.74;99811.94;5030177;28;20037;-49
2022/06/29 13:44:06;;;;;;;11.75;6.70;;;;;;;29.82;19.48;99809.63;5026930;28;20045;-48
2022/06/29 13:46:32;;;;;;;8.00;4.75;;;;;;;29.53;19.82;99798.66;5011056;28;20065;-50
2022/06/29 13:48:58;;;;;;;3.90;2.80;;;;;;;29.44;20.38;99805.88;5015914;28;20563;-47
2022/06/29 13:51:23;;;;;;;29.80;21.27;;;;;;;29.15;20.32;99810.91;5029522;28;20045;-46
2022/06/29 13:53:49;;;;;;;7.78;2.70;;;;;;;28.98;20.52;99810.09;5027941;28;20489;-48
2022/06/29 13:56:15;;;;;;;10.18;6.43;;;;;;;28.76;20.30;99803.53;5004541;28;20449;-50
2022/06/29 13:58:41;;;;;;;10.68;6.65;;;;;;;28.61;20.30;99807.84;5030532;28;20041;-47
2022/06/29 14:01:09;;;;;;;14.63;6.10;;;;;;;28.46;20.54;99804.97;5030234;28;20037;-51
2022/06/29 14:03:35;;;;;;;13.73;6.80;;;;;;;28.36;20.72;99811.47;5030359;28;20041;-46
2022/06/29 14:06:01;;;;;;;61.90;37.28;;;;;;;28.23;21.01;99803.91;5028808;28;20421;-47
2022/06/29 14:08:27;;;;;;;16.23;9.43;;;;;;;28.06;20.82;99800.31;5030336;28;20057;-48
2022/06/29 14:10:53;;;;;;;14.38;8.02;;;;;;;27.98;21.16;99804.78;5028350;28;20124;-46
2022/06/29 14:13:18;;;;;;;29.55;17.48;;;;;;;27.79;21.32;99795.19;5028463;28;20044;-47
2022/06/29 14:15:44;;;;;;;72.25;36.63;;;;;;;27.66;21.67;99797.47;5018612;28;20041;-46
2022/06/29 14:18:10;;;;;;;42.15;20.35;;;;;;;27.56;21.45;99805.59;5009422;28;20046;-46
2022/06/29 14:20:36;;;;;;;8.93;3.55;;;;;;;27.46;21.62;99801.31;5009291;28;20068;-48
2022/06/29 14:23:03;;;;;;;10.30;3.47;;;;;;;27.30;21.93;99792.22;5028428;28;20599;-47
2022/06/29 14:25:29;;;;;;;5.60;2.47;;;;;;;27.30;22.10;99807.38;5021056;28;20498;-46
2022/06/29 14:27:56;;;;;;;4.85;1.88;;;;;;;27.14;22.33;99805.44;5027577;28;20037;-47
2022/06/29 14:30:22;;;;;;;7.82;3.97;;;;;;;27.04;22.17;99796.69;5029601;28;20037;-46
2022/06/29 14:32:48;;;;;;;22.98;14.13;;;;;;;26.99;22.20;99809.66;5029945;28;20045;-47
2022/06/29 14:35:13;;;;;;;5.95;2.78;;;;;;;26.90;21.83;99802.59;5021808;28;20407;-49
2022/06/29 14:37:39;;;;;;;2.78;1.40;;;;;;;26.64;21.89;99796.31;5010364;28;20060;-46
2022/06/29 14:40:06;;;;;;;2.42;1.60;;;;;;;26.45;22.14;99806.13;5010361;28;20044;-45
2022/06/29 14:42:33;;;;;;;3.53;1.70;;;;;;;26.30;22.13;99799.63;5024867;28;20049;-48
2022/06/29 14:44:58;;;;;;;2.20;1.45;;;;;;;26.32;22.37;99788.81;5027167;28;20460;-47
2022/06/29 14:47:24;;;;;;;16.30;7.57;;;;;;;26.22;22.60;99774.69;5012284;28;20099;-47
2022/06/29 14:49:50;;;;;;;9.80;3.45;;;;;;;26.34;22.60;99792.16;5029958;28;20067;-47
2022/06/29 14:52:16;;;;;;;2.92;1.88;;;;;;;26.26;22.86;99782.25;5029639;28;20038;-47
2022/06/29 14:54:41;;;;;;;12.98;6.75;;;;;;;26.22;22.69;99786.22;5027367;28;20429;-48
2022/06/29 14:57:07;;;;;;;14.07;6.53;;;;;;;26.21;22.82;99791.66;5010121;28;20041;-46
2022/06/29 14:59:33;;;;;;;25.70;14.02;;;;;;;26.06;23.94;99783.34;5020614;28;20136;-59
2022/06/29 15:02:00;;;;;;;15.15;7.55;;;;;;;26.01;24.17;99793.59;5023141;28;20488;-59
2022/06/29 15:04:27;;;;;;;3.55;1.60;;;;;;;25.83;23.89;99790.88;5022685;28;20044;-60
2022/06/29 15:06:53;;;;;;;3.40;1.83;;;;;;;25.70;23.64;99790.34;5022957;28;20068;-60
2022/06/29 15:09:19;;;;;;;33.10;15.27;;;;;;;25.58;23.67;99792.38;5027202;28;20037;-60
2022/06/29 15:11:46;;;;;;;9.52;4.35;;;;;;;25.37;24.16;99766.91;5028080;28;20041;-61
2022/06/29 15:14:13;;;;;;;5.28;3.25;;;;;;;25.29;24.19;99778.25;5031151;28;20067;-59
2022/06/29 15:16:39;;;;;;;5.97;2.55;;;;;;;25.25;24.22;99784.88;5023965;28;20048;-59
2022/06/29 15:19:05;;;;;;;10.52;4.32;;;;;;;25.14;24.78;99780.53;5025241;28;20399;-50
2022/06/29 15:21:31;;;;;;;20.88;8.13;;;;;;;25.02;24.75;99781.66;5033009;28;20037;-60
2022/06/29 15:23:57;;;;;;;14.63;7.43;;;;;;;25.02;25.08;99781.66;5032096;28;20052;-58
2022/06/29 15:26:23;;;;;;;4.97;2.78;;;;;;;24.98;25.16;99779.44;5031659;28;20084;-59
2022/06/29 15:28:48;;;;;;;23.45;9.43;;;;;;;24.94;25.66;99788.69;5030009;28;20103;-58
2022/06/29 15:31:15;;;;;;;17.77;10.10;;;;;;;24.91;25.62;99784.50;5029007;28;20095;-61
2022/06/29 15:39:09;;;;;;;14.98;7.60;;;;;;;24.73;24.84;99780.84;5022591;28;20133;-62
2022/06/29 15:41:36;;;;;;;5.43;2.65;;;;;;;24.68;24.68;99789.22;5026028;28;20136;-60
2022/06/29 15:44:02;;;;;;;12.82;6.70;;;;;;;24.61;24.72;99781.94;5021855;28;20049;-49
2022/06/29 15:46:28;;;;;;;4.63;1.67;;;;;;;24.56;24.96;99790.34;5028529;28;20053;-60
2022/06/29 15:48:54;;;;;;;2.65;1.90;;;;;;;24.49;24.49;99781.25;5026289;28;20037;-59
2022/06/29 15:51:20;;;;;;;2.53;1.90;;;;;;;24.43;24.60;99774.69;5022394;28;20536;-59
2022/06/29 15:56:30;;;;;;;4.55;2.30;;;;;;;24.34;24.84;99782.59;5031993;28;20044;-61
2022/06/29 15:58:55;;;;;;;4.15;2.17;;;;;;;24.27;24.81;99776.19;5029866;28;20045;-60
2022/06/29 16:01:21;;;;;;;9.43;4.28;;;;;;;24.12;25.30;99759.78;5024437;28;20064;-61
2022/06/29 16:03:47;;;;;;;2.85;1.70;;;;;;;24.15;25.59;99777.25;5029881;28;20425;-59
2022/06/29 16:06:13;;;;;;;3.88;1.63;;;;;;;24.04;25.59;99764.91;5027793;28;20045;-59
2022/06/29 16:08:39;;;;;;;7.40;2.65;;;;;;;23.87;25.47;99737.19;5023327;28;20062;-61
2022/06/29 16:11:05;;;;;;;4.85;1.70;;;;;;;23.95;25.79;99763.91;5019224;28;20452;-60
2022/06/29 16:13:30;;;;;;;6.05;2.03;;;;;;;23.94;25.67;99775.50;5029532;28;20055;-60
2022/06/29 16:15:56;;;;;;;6.55;2.47;;;;;;;23.90;25.90;99765.28;5025240;28;20045;-60
2022/06/29 16:18:22;;;;;;;1.90;1.60;;;;;;;23.85;26.24;99756.91;5048599;28;20038;-60
2022/06/29 16:20:47;;;;;;;8.00;3.00;;;;;;;23.80;26.63;99752.00;5021809;28;20042;-60
2022/06/29 16:23:13;;;;;;;4.55;1.80;;;;;;;23.72;27.23;99757.13;5054806;28;20034;-60
2022/06/29 16:25:39;;;;;;;8.18;3.20;;;;;;;23.65;27.39;99753.34;5025998;28;20053;-61
2022/06/29 16:28:05;;;;;;;4.45;1.80;;;;;;;23.62;27.15;99761.56;5025337;28;20053;-60
2022/06/29 16:30:31;;;;;;;4.20;1.50;;;;;;;23.50;27.53;99744.06;5022527;28;20106;-60
2022/06/29 16:32:57;;;;;;;6.72;2.45;;;;;;;23.50;28.12;99757.34;5025567;28;20087;-61
2022/06/29 16:35:23;;;;;;;9.30;2.35;;;;;;;23.42;28.33;99750.00;5026043;28;20041;-61
2022/06/29 16:37:49;;;;;;;3.25;1.85;;;;;;;23.40;28.01;99756.38;5044952;28;20119;-60
2022/06/29 16:40:15;;;;;;;4.80;1.65;;;;;;;23.35;28.25;99753.28;5022173;28;20073;-61
2022/06/29 16:42:41;;;;;;;3.58;1.50;;;;;;;23.28;28.41;99749.50;5026201;28;20046;-61
2022/06/29 16:45:07;;;;;;;2.85;2.08;;;;;;;23.22;28.37;99750.88;5037042;28;20037;-60
2022/06/29 16:47:33;;;;;;;7.70;1.75;;;;;;;23.15;28.40;99741.75;5018476;28;20030;-60
2022/06/29 16:49:59;;;;;;;3.00;1.92;;;;;;;23.10;28.36;99735.97;5018118;28;20046;-60
2022/06/29 16:52:24;;;;;;;7.05;1.60;;;;;;;23.06;28.09;99727.47;5019990;28;20132;-60
2022/06/29 16:54:51;;;;;;;4.72;1.35;;;;;;;23.02;28.03;99734.00;5029010;28;20519;-60
2022/06/29 16:57:17;;;;;;;8.00;1.90;;;;;;;22.97;28.22;99727.41;5026280;28;20183;-61
2022/06/29 16:59:42;;;;;;;2.97;1.52;;;;;;;22.90;28.73;99735.03;5026346;28;20539;-61
2022/06/29 17:02:08;;;;;;;3.90;1.40;;;;;;;22.83;28.93;99735.66;5026354;28;20244;-60
2022/06/29 17:04:35;;;;;;;6.30;1.55;;;;;;;22.77;29.09;99739.66;5018231;28;20507;-60